Air Resources Laboratory banner image
Air Resources Laboratory web site National Oceanic and Atmospheric Administration (NOAA)

wi metar


KCWA 221047Z 04005KT 10SM SCT150 BKN250 12/09 A2992=
KENW 221053Z AUTO 05005KT 10SM -RA BKN075 OVC090 14/12 A2981 RMK AO2 RAB12
 SLP095 P0002 T01440117=
KFLD 221053Z AUTO 06007KT 10SM CLR 15/09 A2987 RMK AO2 SLP115 T01500094=
KJVL 221045Z 04006KT 10SM -RA SCT034 OVC090 16/15 A2980 RMK FIRST=
KLSE 221053Z 35006KT 10SM BKN050 18/16 A2988 RMK AO2 SLP114 T01780161=
KMKE 221052Z 02010KT 10SM OVC100 15/09 A2982 RMK AO2 SLP097 T01500094=
KMSN 221053Z 03007KT 10SM OVC090 15/13 A2983 RMK AO2 SLP100 T01500128=
KOSH 221053Z AUTO 03004KT 10SM CLR 16/11 A2988 RMK AO2 SLP110 T01610111=
KOVS 221053Z AUTO 00000KT 10SM OVC070 17/16 A2986 RMK AO2 RAE22 SLP109 P0000
 T01720156 TSNO=
KRAC 221053Z AUTO 05009G17KT 10SM OVC080 16/10 A2983 RMK AO2 SLP099 T01560100=
KSBM 221053Z AUTO 02005KT 10SM CLR 14/09 A2987 RMK AO2 SLP114 T01390094 TSNO=
KUES 221045Z 03004KT 10SM SCT037 OVC100 13/09 A2984=